createdAt,value
2023-03-27T00:02:35.499Z,30.18
2023-03-27T00:06:35.349Z,30.24
2023-03-27T00:10:35.291Z,30.24
2023-03-27T00:14:35.228Z,30.19
2023-03-27T00:18:35.219Z,30.23
2023-03-27T00:22:35.138Z,30.22
2023-03-27T00:26:35.223Z,30.22
2023-03-27T00:30:35.519Z,30.27
2023-03-27T00:34:35.421Z,30.23
2023-03-27T00:38:35.424Z,30.23
2023-03-27T00:42:35.382Z,30.23
2023-03-27T00:46:35.386Z,30.24
2023-03-27T00:50:35.263Z,30.24
2023-03-27T00:54:35.270Z,30.24
2023-03-27T00:58:35.249Z,30.25
2023-03-27T01:02:35.258Z,30.23
2023-03-27T01:06:35.152Z,30.27
2023-03-27T01:10:35.097Z,30.30
2023-03-27T01:14:35.276Z,30.27
2023-03-27T01:18:35.485Z,30.27
2023-03-27T01:22:35.694Z,30.27
2023-03-27T01:26:36.980Z,30.31
2023-03-27T01:30:35.601Z,30.30
2023-03-27T01:34:35.521Z,30.24
2023-03-27T01:38:35.541Z,30.25
2023-03-27T01:42:35.783Z,30.28
2023-03-27T01:46:35.989Z,30.29
2023-03-27T01:50:36.152Z,30.27
2023-03-27T01:54:36.208Z,30.28
2023-03-27T01:58:36.315Z,30.25
2023-03-27T02:02:36.395Z,30.29
2023-03-27T02:06:36.483Z,30.29
2023-03-27T02:10:36.577Z,30.32
2023-03-27T02:14:36.675Z,30.32
2023-03-27T02:18:36.783Z,30.32
2023-03-27T02:22:38.348Z,30.29
2023-03-27T02:26:36.959Z,30.28
2023-03-27T02:30:37.049Z,30.26
2023-03-27T02:34:37.144Z,30.33
2023-03-27T02:38:37.305Z,30.33
2023-03-27T02:42:37.440Z,30.33
2023-03-27T02:46:37.543Z,30.36
2023-03-27T02:50:37.575Z,30.33
2023-03-27T02:54:37.656Z,30.32
2023-03-27T02:58:37.753Z,30.36
2023-03-27T03:02:38.125Z,30.34
2023-03-27T03:06:38.186Z,30.34
2023-03-27T03:10:38.421Z,30.36
2023-03-27T03:14:38.502Z,30.39
2023-03-27T03:18:38.579Z,30.37
2023-03-27T03:22:38.597Z,30.36
2023-03-27T03:26:38.567Z,30.36
2023-03-27T03:30:38.585Z,30.37
2023-03-27T03:34:38.539Z,30.34
2023-03-27T03:38:38.525Z,30.34
2023-03-27T03:42:38.478Z,30.36
2023-03-27T03:46:38.506Z,30.38
2023-03-27T03:50:38.480Z,30.37
2023-03-27T03:54:38.413Z,30.36
2023-03-27T03:58:38.430Z,30.38
2023-03-27T04:02:38.590Z,30.33
2023-03-27T04:06:38.473Z,30.38
2023-03-27T04:10:38.408Z,30.20
2023-03-27T04:14:38.440Z,30.08
2023-03-27T04:18:38.665Z,30.08
2023-03-27T04:22:38.647Z,30.08
2023-03-27T04:26:38.761Z,29.99
2023-03-27T04:30:38.724Z,29.92
2023-03-27T04:34:38.699Z,29.85
2023-03-27T04:38:38.705Z,30.05
2023-03-27T04:42:38.660Z,30.06
2023-03-27T04:46:38.760Z,30.11
2023-03-27T04:50:38.679Z,30.11
2023-03-27T04:54:38.710Z,30.11
2023-03-27T04:58:38.706Z,29.96
2023-03-27T05:02:38.700Z,29.95
2023-03-27T05:06:40.486Z,29.92
2023-03-27T05:10:38.950Z,29.83
2023-03-27T05:14:38.845Z,29.83
2023-03-27T05:18:41.993Z,29.82
2023-03-27T05:22:38.751Z,29.79
2023-03-27T05:26:38.719Z,29.76
2023-03-27T05:30:39.112Z,29.73
2023-03-27T05:34:38.653Z,28.96
2023-03-27T05:38:38.598Z,26.08
2023-03-27T05:42:38.528Z,28.05
2023-03-27T05:46:38.562Z,29.25
2023-03-27T05:50:38.473Z,29.86
2023-03-27T05:54:38.421Z,30.26
2023-03-27T05:58:38.355Z,30.53
2023-03-27T06:02:38.548Z,30.97
2023-03-27T06:06:38.319Z,31.21
2023-03-27T06:10:38.306Z,31.36
2023-03-27T06:14:38.267Z,31.08
2023-03-27T06:18:38.403Z,31.10
2023-03-27T06:22:38.393Z,31.39
2023-03-27T06:26:38.372Z,31.68
2023-03-27T06:30:38.297Z,31.60
2023-03-27T06:34:38.469Z,31.69
2023-03-27T06:38:38.249Z,31.81
2023-03-27T06:42:38.517Z,32.03
2023-03-27T06:46:45.021Z,32.04
2023-03-27T06:50:39.189Z,31.99
2023-03-27T06:54:38.097Z,32.24
2023-03-27T06:58:38.077Z,32.42
2023-03-27T07:02:40.079Z,32.57
2023-03-27T07:06:39.674Z,32.40
2023-03-27T07:10:39.010Z,31.93
2023-03-27T07:14:38.723Z,30.04
2023-03-27T07:18:38.717Z,29.25
2023-03-27T07:22:38.694Z,28.73
2023-03-27T07:26:38.595Z,29.54
2023-03-27T12:58:38.399Z,26.31
2023-03-27T13:02:38.476Z,26.40
2023-03-27T13:10:38.195Z,25.78
2023-03-27T13:18:38.170Z,26.43
2023-03-27T13:42:39.193Z,26.88
2023-03-27T17:06:40.229Z,24.98
2023-03-27T17:10:40.210Z,25.02
2023-03-27T17:14:40.384Z,25.12
2023-03-27T17:34:41.189Z,25.39
2023-03-27T18:54:43.112Z,26.16
2023-03-27T19:26:42.971Z,26.27
2023-03-27T19:30:42.965Z,26.30
2023-03-27T19:34:43.345Z,26.37
2023-03-27T19:38:42.868Z,26.38
2023-03-27T19:42:42.884Z,26.36
2023-03-27T19:46:42.933Z,26.47
2023-03-27T19:50:42.771Z,26.51
2023-03-27T19:54:42.757Z,26.57
2023-03-27T19:58:42.680Z,26.63
2023-03-27T20:02:42.672Z,26.65
2023-03-27T20:06:42.647Z,26.68
2023-03-27T20:10:42.548Z,26.69
2023-03-27T20:14:44.898Z,26.79
2023-03-27T20:18:43.567Z,26.79
2023-03-27T20:22:56.453Z,26.82
2023-03-27T20:26:43.439Z,26.86
2023-03-27T20:30:42.603Z,26.92
2023-03-27T20:34:42.360Z,26.96
2023-03-27T20:38:42.349Z,26.96
2023-03-27T20:42:42.367Z,26.95
2023-03-27T20:46:42.525Z,26.98
2023-03-27T20:50:42.580Z,27.02
2023-03-27T20:54:42.715Z,27.07
2023-03-27T20:58:42.774Z,27.10
2023-03-27T21:02:43.116Z,27.10
2023-03-27T21:06:43.037Z,27.13
2023-03-27T21:10:43.075Z,27.17
2023-03-27T21:14:43.108Z,27.13
2023-03-27T21:18:43.081Z,27.23
2023-03-27T21:22:43.085Z,27.22
2023-03-27T21:26:43.077Z,27.24
2023-03-27T21:30:47.237Z,27.27
2023-03-27T21:38:42.947Z,27.33
2023-03-27T21:42:42.914Z,27.33
2023-03-27T21:46:42.914Z,27.37
2023-03-27T21:50:42.825Z,27.44
2023-03-27T21:54:52.966Z,27.42
2023-03-27T22:02:42.816Z,27.47
2023-03-27T22:06:42.789Z,27.45
2023-03-27T22:10:42.661Z,27.49
2023-03-27T22:14:42.638Z,27.52
2023-03-27T22:18:42.557Z,27.52
2023-03-27T22:22:42.541Z,27.56
2023-03-27T23:50:42.881Z,27.88
